sensor_id;sensor_type;location;lat;lon;timestamp;pressure;altitude;pressure_sealevel;temperature;humidity
51147;BME280;37207;53.060;18.726;2023-03-25T00:01:06;99465.88;;;8.59;81.97
51147;BME280;37207;53.060;18.726;2023-03-25T00:03:39;99463.77;;;8.57;82.10
51147;BME280;37207;53.060;18.726;2023-03-25T00:06:12;99469.38;;;8.54;82.20
51147;BME280;37207;53.060;18.726;2023-03-25T00:08:38;99470.36;;;8.53;82.26
51147;BME280;37207;53.060;18.726;2023-03-25T00:11:05;99473.36;;;8.51;82.37
51147;BME280;37207;53.060;18.726;2023-03-25T00:13:33;99478.11;;;8.50;82.42
51147;BME280;37207;53.060;18.726;2023-03-25T00:16:01;99476.14;;;8.48;82.51
51147;BME280;37207;53.060;18.726;2023-03-25T00:18:29;99475.17;;;8.46;82.64
51147;BME280;37207;53.060;18.726;2023-03-25T00:21:00;99478.08;;;8.44;82.82
51147;BME280;37207;53.060;18.726;2023-03-25T00:23:28;99480.02;;;8.43;82.89
51147;BME280;37207;53.060;18.726;2023-03-25T00:25:54;99468.35;;;8.41;83.02
51147;BME280;37207;53.060;18.726;2023-03-25T00:28:27;99467.05;;;8.39;83.09
51147;BME280;37207;53.060;18.726;2023-03-25T00:31:00;99471.99;;;8.38;82.99
51147;BME280;37207;53.060;18.726;2023-03-25T00:33:27;99480.74;;;8.37;83.23
51147;BME280;37207;53.060;18.726;2023-03-25T00:35:54;99485.74;;;8.34;83.26
51147;BME280;37207;53.060;18.726;2023-03-25T00:38:25;99477.77;;;8.33;83.48
51147;BME280;37207;53.060;18.726;2023-03-25T00:41:20;99476.38;;;8.31;83.63
51147;BME280;37207;53.060;18.726;2023-03-25T00:43:51;99474.52;;;8.30;83.65
51147;BME280;37207;53.060;18.726;2023-03-25T00:46:18;99472.36;;;8.28;83.92
51147;BME280;37207;53.060;18.726;2023-03-25T00:48:43;99471.65;;;8.27;83.85
51147;BME280;37207;53.060;18.726;2023-03-25T00:51:09;99475.85;;;8.26;84.03
51147;BME280;37207;53.060;18.726;2023-03-25T00:53:38;99477.45;;;8.24;84.18
51147;BME280;37207;53.060;18.726;2023-03-25T00:56:05;99477.18;;;8.22;84.20
51147;BME280;37207;53.060;18.726;2023-03-25T00:58:31;99476.27;;;8.19;84.26
51147;BME280;37207;53.060;18.726;2023-03-25T01:00:57;99473.52;;;8.17;84.39
51147;BME280;37207;53.060;18.726;2023-03-25T01:03:25;99470.20;;;8.15;84.54
51147;BME280;37207;53.060;18.726;2023-03-25T01:05:53;99461.08;;;8.14;84.72
51147;BME280;37207;53.060;18.726;2023-03-25T01:08:22;99459.02;;;8.13;84.93
51147;BME280;37207;53.060;18.726;2023-03-25T01:10:51;99460.27;;;8.12;84.97
51147;BME280;37207;53.060;18.726;2023-03-25T01:13:19;99453.26;;;8.11;84.94
51147;BME280;37207;53.060;18.726;2023-03-25T01:15:45;99451.30;;;8.10;84.98
51147;BME280;37207;53.060;18.726;2023-03-25T01:18:11;99453.85;;;8.09;85.11
51147;BME280;37207;53.060;18.726;2023-03-25T01:20:40;99453.65;;;8.07;85.02
51147;BME280;37207;53.060;18.726;2023-03-25T01:23:06;99448.73;;;8.06;85.19
51147;BME280;37207;53.060;18.726;2023-03-25T01:25:35;99445.27;;;8.04;85.23
51147;BME280;37207;53.060;18.726;2023-03-25T01:28:01;99443.22;;;8.02;85.27
51147;BME280;37207;53.060;18.726;2023-03-25T01:30:27;99441.41;;;8.01;85.37
51147;BME280;37207;53.060;18.726;2023-03-25T01:32:54;99439.45;;;7.98;85.37
51147;BME280;37207;53.060;18.726;2023-03-25T01:35:20;99438.52;;;7.95;85.53
51147;BME280;37207;53.060;18.726;2023-03-25T01:37:46;99446.05;;;7.93;85.58
51147;BME280;37207;53.060;18.726;2023-03-25T01:40:18;99443.98;;;7.89;85.66
51147;BME280;37207;53.060;18.726;2023-03-25T01:42:44;99449.67;;;7.87;85.82
51147;BME280;37207;53.060;18.726;2023-03-25T01:45:30;99453.75;;;7.83;85.83
51147;BME280;37207;53.060;18.726;2023-03-25T01:48:09;99455.23;;;7.79;85.90
51147;BME280;37207;53.060;18.726;2023-03-25T01:51:31;99453.48;;;7.74;86.15
51147;BME280;37207;53.060;18.726;2023-03-25T01:53:31;99441.08;;;7.71;86.03
51147;BME280;37207;53.060;18.726;2023-03-25T01:56:01;99433.45;;;7.67;86.14
51147;BME280;37207;53.060;18.726;2023-03-25T01:58:29;99435.63;;;7.64;86.37
51147;BME280;37207;53.060;18.726;2023-03-25T02:00:56;99435.23;;;7.61;86.27
51147;BME280;37207;53.060;18.726;2023-03-25T02:03:23;99436.63;;;7.58;86.46
51147;BME280;37207;53.060;18.726;2023-03-25T02:06:26;99434.70;;;7.56;86.53
51147;BME280;37207;53.060;18.726;2023-03-25T02:08:57;99432.68;;;7.52;86.53
51147;BME280;37207;53.060;18.726;2023-03-25T02:11:23;99436.75;;;7.48;86.73
51147;BME280;37207;53.060;18.726;2023-03-25T02:13:56;99437.50;;;7.46;86.79
51147;BME280;37207;53.060;18.726;2023-03-25T02:19:52;99437.05;;;7.43;87.31
51147;BME280;37207;53.060;18.726;2023-03-25T02:33:55;99424.77;;;7.28;87.67
51147;BME280;37207;53.060;18.726;2023-03-25T02:39:50;99420.93;;;7.26;88.03
51147;BME280;37207;53.060;18.726;2023-03-25T02:42:32;99418.42;;;7.26;88.19
51147;BME280;37207;53.060;18.726;2023-03-25T02:45:19;99421.57;;;7.26;88.33
51147;BME280;37207;53.060;18.726;2023-03-25T02:47:52;99421.33;;;7.26;88.37
51147;BME280;37207;53.060;18.726;2023-03-25T02:50:30;99421.48;;;7.26;88.33
51147;BME280;37207;53.060;18.726;2023-03-25T02:53:00;99420.42;;;7.26;88.42
51147;BME280;37207;53.060;18.726;2023-03-25T02:55:28;99419.52;;;7.26;88.51
51147;BME280;37207;53.060;18.726;2023-03-25T02:57:56;99418.13;;;7.26;88.57
51147;BME280;37207;53.060;18.726;2023-03-25T03:00:26;99415.58;;;7.26;88.67
51147;BME280;37207;53.060;18.726;2023-03-25T03:02:56;99413.19;;;7.26;88.48
51147;BME280;37207;53.060;18.726;2023-03-25T03:05:29;99406.14;;;7.25;88.71
51147;BME280;37207;53.060;18.726;2023-03-25T03:13:39;99407.09;;;7.29;88.79
51147;BME280;37207;53.060;18.726;2023-03-25T03:21:59;99404.58;;;7.36;88.86
51147;BME280;37207;53.060;18.726;2023-03-25T03:24:32;99407.00;;;7.32;88.54
51147;BME280;37207;53.060;18.726;2023-03-25T03:29:35;99392.22;;;7.21;88.16
51147;BME280;37207;53.060;18.726;2023-03-25T03:34:47;99387.12;;;7.08;88.23
51147;BME280;37207;53.060;18.726;2023-03-25T03:37:18;99388.86;;;7.00;88.29
51147;BME280;37207;53.060;18.726;2023-03-25T03:39:47;99395.80;;;6.93;88.29
51147;BME280;37207;53.060;18.726;2023-03-25T03:42:22;99406.13;;;6.90;88.26
51147;BME280;37207;53.060;18.726;2023-03-25T03:44:55;99408.83;;;6.86;88.43
51147;BME280;37207;53.060;18.726;2023-03-25T03:47:28;99408.98;;;6.81;88.19
51147;BME280;37207;53.060;18.726;2023-03-25T03:50:04;99408.86;;;6.78;88.51
51147;BME280;37207;53.060;18.726;2023-03-25T03:52:35;99406.30;;;6.75;88.54
51147;BME280;37207;53.060;18.726;2023-03-25T03:55:06;99406.23;;;6.72;88.66
51147;BME280;37207;53.060;18.726;2023-03-25T03:57:38;99411.36;;;6.71;88.90
51147;BME280;37207;53.060;18.726;2023-03-25T04:05:19;99415.61;;;6.65;89.05
51147;BME280;37207;53.060;18.726;2023-03-25T04:07:52;99422.58;;;6.63;89.21
51147;BME280;37207;53.060;18.726;2023-03-25T04:10:44;99424.77;;;6.62;89.19
51147;BME280;37207;53.060;18.726;2023-03-25T04:13:19;99429.80;;;6.62;89.50
51147;BME280;37207;53.060;18.726;2023-03-25T04:15:46;99424.89;;;6.60;89.51
51147;BME280;37207;53.060;18.726;2023-03-25T04:18:13;99430.63;;;6.60;89.57
51147;BME280;37207;53.060;18.726;2023-03-25T04:20:38;99430.08;;;6.60;89.85
51147;BME280;37207;53.060;18.726;2023-03-25T04:23:10;99435.37;;;6.61;90.06
51147;BME280;37207;53.060;18.726;2023-03-25T04:25:43;99440.91;;;6.61;89.98
51147;BME280;37207;53.060;18.726;2023-03-25T04:28:12;99443.48;;;6.62;90.18
51147;BME280;37207;53.060;18.726;2023-03-25T04:30:39;99442.61;;;6.62;90.16
51147;BME280;37207;53.060;18.726;2023-03-25T04:33:05;99443.13;;;6.62;90.39
51147;BME280;37207;53.060;18.726;2023-03-25T04:35:31;99443.57;;;6.63;90.25
51147;BME280;37207;53.060;18.726;2023-03-25T04:37:58;99443.14;;;6.63;90.36
51147;BME280;37207;53.060;18.726;2023-03-25T04:40:24;99449.87;;;6.64;90.57
51147;BME280;37207;53.060;18.726;2023-03-25T04:42:51;99460.16;;;6.65;90.57
51147;BME280;37207;53.060;18.726;2023-03-25T04:45:18;99461.11;;;6.66;90.65
51147;BME280;37207;53.060;18.726;2023-03-25T04:47:47;99462.23;;;6.67;90.50
51147;BME280;37207;53.060;18.726;2023-03-25T04:50:22;99462.39;;;6.68;90.72
51147;BME280;37207;53.060;18.726;2023-03-25T04:52:50;99463.30;;;6.70;90.70
51147;BME280;37207;53.060;18.726;2023-03-25T04:55:18;99467.41;;;6.72;90.82
51147;BME280;37207;53.060;18.726;2023-03-25T04:57:49;99472.70;;;6.73;90.88
51147;BME280;37207;53.060;18.726;2023-03-25T05:00:18;99471.79;;;6.75;91.15
51147;BME280;37207;53.060;18.726;2023-03-25T05:02:47;99461.59;;;6.77;91.10
51147;BME280;37207;53.060;18.726;2023-03-25T05:05:16;99451.54;;;6.79;91.01
51147;BME280;37207;53.060;18.726;2023-03-25T05:07:44;99458.88;;;6.79;91.17
51147;BME280;37207;53.060;18.726;2023-03-25T05:10:12;99456.94;;;6.80;91.19
51147;BME280;37207;53.060;18.726;2023-03-25T05:12:37;99457.95;;;6.80;91.16
51147;BME280;37207;53.060;18.726;2023-03-25T05:15:04;99458.14;;;6.81;91.15
51147;BME280;37207;53.060;18.726;2023-03-25T05:17:30;99455.77;;;6.83;91.27
51147;BME280;37207;53.060;18.726;2023-03-25T05:19:56;99456.33;;;6.84;91.19
51147;BME280;37207;53.060;18.726;2023-03-25T05:22:22;99448.59;;;6.85;91.37
51147;BME280;37207;53.060;18.726;2023-03-25T05:24:48;99449.65;;;6.85;91.22
51147;BME280;37207;53.060;18.726;2023-03-25T05:27:19;99445.13;;;6.87;91.19
51147;BME280;37207;53.060;18.726;2023-03-25T05:29:45;99435.61;;;6.89;91.33
51147;BME280;37207;53.060;18.726;2023-03-25T05:32:11;99442.08;;;6.92;91.15
51147;BME280;37207;53.060;18.726;2023-03-25T05:34:44;99450.52;;;6.95;91.05
51147;BME280;37207;53.060;18.726;2023-03-25T05:37:12;99452.64;;;7.00;91.29
51147;BME280;37207;53.060;18.726;2023-03-25T05:39:39;99451.73;;;7.04;91.39
51147;BME280;37207;53.060;18.726;2023-03-25T05:42:05;99455.76;;;7.08;91.28
51147;BME280;37207;53.060;18.726;2023-03-25T05:44:31;99455.52;;;7.10;91.16
51147;BME280;37207;53.060;18.726;2023-03-25T05:46:57;99453.70;;;7.14;91.06
51147;BME280;37207;53.060;18.726;2023-03-25T05:49:26;99450.94;;;7.19;91.35
51147;BME280;37207;53.060;18.726;2023-03-25T05:51:52;99451.42;;;7.24;91.29
51147;BME280;37207;53.060;18.726;2023-03-25T05:54:21;99452.70;;;7.31;91.32
51147;BME280;37207;53.060;18.726;2023-03-25T05:56:49;99454.34;;;7.37;91.09
51147;BME280;37207;53.060;18.726;2023-03-25T05:59:16;99460.58;;;7.44;91.12
51147;BME280;37207;53.060;18.726;2023-03-25T06:01:42;99463.66;;;7.51;91.11
51147;BME280;37207;53.060;18.726;2023-03-25T06:04:11;99467.40;;;7.63;91.28
51147;BME280;37207;53.060;18.726;2023-03-25T06:06:38;99470.85;;;7.71;90.93
51147;BME280;37207;53.060;18.726;2023-03-25T06:09:06;99468.98;;;7.76;90.81
51147;BME280;37207;53.060;18.726;2023-03-25T06:11:32;99468.59;;;7.82;90.89
51147;BME280;37207;53.060;18.726;2023-03-25T06:14:04;99474.88;;;7.87;90.74
51147;BME280;37207;53.060;18.726;2023-03-25T06:16:30;99477.30;;;7.93;90.55
51147;BME280;37207;53.060;18.726;2023-03-25T06:18:57;99481.10;;;7.98;90.63
51147;BME280;37207;53.060;18.726;2023-03-25T06:21:30;99477.59;;;8.05;90.55
51147;BME280;37207;53.060;18.726;2023-03-25T06:23:58;99471.86;;;8.14;90.45
51147;BME280;37207;53.060;18.726;2023-03-25T06:26:25;99473.39;;;8.36;90.51
51147;BME280;37207;53.060;18.726;2023-03-25T06:28:51;99477.23;;;8.59;90.10
51147;BME280;37207;53.060;18.726;2023-03-25T06:31:19;99477.89;;;8.71;89.72
51147;BME280;37207;53.060;18.726;2023-03-25T06:33:48;99472.19;;;9.02;89.20
51147;BME280;37207;53.060;18.726;2023-03-25T06:36:17;99471.17;;;9.20;88.95
51147;BME280;37207;53.060;18.726;2023-03-25T06:38:47;99467.64;;;9.35;88.91
51147;BME280;37207;53.060;18.726;2023-03-25T06:41:15;99462.11;;;9.62;88.67
51147;BME280;37207;53.060;18.726;2023-03-25T06:43:46;99461.39;;;9.92;88.26
51147;BME280;37207;53.060;18.726;2023-03-25T06:46:42;99463.34;;;11.70;87.32
51147;BME280;37207;53.060;18.726;2023-03-25T06:49:14;99466.27;;;12.95;84.59
51147;BME280;37207;53.060;18.726;2023-03-25T06:51:40;99465.01;;;13.67;83.27
51147;BME280;37207;53.060;18.726;2023-03-25T06:54:06;99463.77;;;14.45;81.12
51147;BME280;37207;53.060;18.726;2023-03-25T06:56:32;99468.55;;;14.88;78.32
51147;BME280;37207;53.060;18.726;2023-03-25T06:58:58;99467.39;;;15.15;77.21
51147;BME280;37207;53.060;18.726;2023-03-25T07:01:24;99454.81;;;15.31;76.50
51147;BME280;37207;53.060;18.726;2023-03-25T07:03:50;99457.83;;;15.90;76.28
51147;BME280;37207;53.060;18.726;2023-03-25T07:06:19;99456.05;;;16.30;74.37
51147;BME280;37207;53.060;18.726;2023-03-25T07:08:46;99454.77;;;16.15;73.51
51147;BME280;37207;53.060;18.726;2023-03-25T07:11:14;99456.80;;;15.92;72.41
51147;BME280;37207;53.060;18.726;2023-03-25T07:13:40;99454.63;;;15.44;71.53
51147;BME280;37207;53.060;18.726;2023-03-25T07:16:07;99457.18;;;14.79;71.47
51147;BME280;37207;53.060;18.726;2023-03-25T07:18:33;99463.53;;;14.12;70.74
51147;BME280;37207;53.060;18.726;2023-03-25T07:20:59;99461.55;;;13.48;71.38
51147;BME280;37207;53.060;18.726;2023-03-25T07:23:26;99460.05;;;13.00;72.46
51147;BME280;37207;53.060;18.726;2023-03-25T07:25:52;99460.39;;;12.63;72.96
51147;BME280;37207;53.060;18.726;2023-03-25T07:28:18;99454.09;;;12.32;73.63
51147;BME280;37207;53.060;18.726;2023-03-25T07:30:45;99456.87;;;12.10;73.92
51147;BME280;37207;53.060;18.726;2023-03-25T07:33:11;99454.40;;;11.86;74.18
51147;BME280;37207;53.060;18.726;2023-03-25T07:35:37;99456.92;;;11.72;74.88
51147;BME280;37207;53.060;18.726;2023-03-25T07:38:03;99462.64;;;11.58;74.98
51147;BME280;37207;53.060;18.726;2023-03-25T07:40:29;99460.39;;;11.44;75.02
51147;BME280;37207;53.060;18.726;2023-03-25T07:42:55;99460.52;;;11.37;75.75
51147;BME280;37207;53.060;18.726;2023-03-25T07:45:28;99460.05;;;11.33;76.08
51147;BME280;37207;53.060;18.726;2023-03-25T07:47:54;99460.36;;;11.33;75.85
51147;BME280;37207;53.060;18.726;2023-03-25T07:50:21;99460.77;;;11.37;75.82
51147;BME280;37207;53.060;18.726;2023-03-25T07:52:48;99456.77;;;11.56;75.67
51147;BME280;37207;53.060;18.726;2023-03-25T07:55:14;99456.86;;;11.72;75.35
51147;BME280;37207;53.060;18.726;2023-03-25T07:57:42;99459.67;;;11.72;75.38
51147;BME280;37207;53.060;18.726;2023-03-25T08:00:09;99460.23;;;11.68;75.43
51147;BME280;37207;53.060;18.726;2023-03-25T08:02:39;99461.64;;;11.67;75.85
51147;BME280;37207;53.060;18.726;2023-03-25T08:05:06;99461.34;;;11.62;75.63
51147;BME280;37207;53.060;18.726;2023-03-25T08:07:32;99466.75;;;11.56;75.75
51147;BME280;37207;53.060;18.726;2023-03-25T08:09:58;99465.38;;;11.48;75.85
51147;BME280;37207;53.060;18.726;2023-03-25T08:12:24;99459.20;;;11.42;75.66
51147;BME280;37207;53.060;18.726;2023-03-25T08:14:50;99460.30;;;11.38;75.79
51147;BME280;37207;53.060;18.726;2023-03-25T08:17:16;99456.52;;;11.39;76.01
51147;BME280;37207;53.060;18.726;2023-03-25T08:19:42;99459.98;;;11.44;76.15
51147;BME280;37207;53.060;18.726;2023-03-25T08:22:07;99458.63;;;11.49;76.28
51147;BME280;37207;53.060;18.726;2023-03-25T08:24:33;99450.89;;;11.54;76.10
51147;BME280;37207;53.060;18.726;2023-03-25T08:26:59;99445.88;;;11.53;75.85
51147;BME280;37207;53.060;18.726;2023-03-25T08:29:26;99443.09;;;11.50;76.23
51147;BME280;37207;53.060;18.726;2023-03-25T08:31:52;99454.20;;;11.49;76.25
51147;BME280;37207;53.060;18.726;2023-03-25T08:34:20;99457.45;;;11.46;76.09
51147;BME280;37207;53.060;18.726;2023-03-25T08:36:47;99462.02;;;11.42;76.14
51147;BME280;37207;53.060;18.726;2023-03-25T08:39:14;99456.92;;;11.40;76.23
51147;BME280;37207;53.060;18.726;2023-03-25T08:41:42;99451.82;;;11.37;76.20
51147;BME280;37207;53.060;18.726;2023-03-25T08:44:09;99449.13;;;11.34;76.21
51147;BME280;37207;53.060;18.726;2023-03-25T08:46:35;99445.33;;;11.32;76.46
51147;BME280;37207;53.060;18.726;2023-03-25T08:49:02;99443.63;;;11.30;76.62
51147;BME280;37207;53.060;18.726;2023-03-25T08:51:29;99447.30;;;11.31;76.68
51147;BME280;37207;53.060;18.726;2023-03-25T08:53:55;99442.23;;;11.29;76.65
51147;BME280;37207;53.060;18.726;2023-03-25T08:56:21;99444.80;;;11.21;76.36
51147;BME280;37207;53.060;18.726;2023-03-25T08:58:47;99439.16;;;11.10;76.50
51147;BME280;37207;53.060;18.726;2023-03-25T09:01:13;99444.13;;;11.02;76.44
51147;BME280;37207;53.060;18.726;2023-03-25T09:03:39;99448.39;;;10.96;76.69
51147;BME280;37207;53.060;18.726;2023-03-25T09:06:06;99450.10;;;10.95;77.07
51147;BME280;37207;53.060;18.726;2023-03-25T09:08:35;99447.98;;;11.02;77.44
51147;BME280;37207;53.060;18.726;2023-03-25T09:11:02;99452.05;;;11.18;77.72
51147;BME280;37207;53.060;18.726;2023-03-25T09:13:27;99448.10;;;11.42;77.76
51147;BME280;37207;53.060;18.726;2023-03-25T09:15:53;99441.02;;;11.63;77.59
51147;BME280;37207;53.060;18.726;2023-03-25T09:18:19;99441.87;;;11.87;77.32
51147;BME280;37207;53.060;18.726;2023-03-25T09:20:45;99440.48;;;12.12;77.03
51147;BME280;37207;53.060;18.726;2023-03-25T09:23:14;99438.23;;;12.22;75.85
51147;BME280;37207;53.060;18.726;2023-03-25T09:25:40;99436.06;;;12.24;75.70
51147;BME280;37207;53.060;18.726;2023-03-25T09:28:07;99435.52;;;12.26;75.38
51147;BME280;37207;53.060;18.726;2023-03-25T09:30:34;99436.96;;;12.23;75.31
51147;BME280;37207;53.060;18.726;2023-03-25T09:33:00;99438.82;;;12.15;75.05
51147;BME280;37207;53.060;18.726;2023-03-25T09:35:26;99439.33;;;12.05;74.88
51147;BME280;37207;53.060;18.726;2023-03-25T09:37:52;99432.08;;;12.00;75.18
51147;BME280;37207;53.060;18.726;2023-03-25T09:40:19;99429.28;;;11.98;75.32
51147;BME280;37207;53.060;18.726;2023-03-25T09:45:36;99430.57;;;11.96;75.47
51147;BME280;37207;53.060;18.726;2023-03-25T09:48:18;99433.42;;;11.91;75.37
51147;BME280;37207;53.060;18.726;2023-03-25T09:50:47;99433.42;;;11.91;75.33
51147;BME280;37207;53.060;18.726;2023-03-25T09:53:37;99427.21;;;12.03;75.36
51147;BME280;37207;53.060;18.726;2023-03-25T09:56:10;99427.01;;;12.36;75.54
51147;BME280;37207;53.060;18.726;2023-03-25T09:58:46;99427.44;;;12.64;75.22
51147;BME280;37207;53.060;18.726;2023-03-25T10:01:32;99433.54;;;12.76;74.50
51147;BME280;37207;53.060;18.726;2023-03-25T10:04:08;99429.21;;;12.72;73.56
51147;BME280;37207;53.060;18.726;2023-03-25T10:06:57;99427.34;;;12.69;73.96
51147;BME280;37207;53.060;18.726;2023-03-25T10:12:03;99424.63;;;12.68;74.06
51147;BME280;37207;53.060;18.726;2023-03-25T10:20:37;99426.98;;;12.71;73.89
51147;BME280;37207;53.060;18.726;2023-03-25T10:23:15;99424.89;;;12.83;73.91
51147;BME280;37207;53.060;18.726;2023-03-25T10:25:46;99425.95;;;13.02;73.90
51147;BME280;37207;53.060;18.726;2023-03-25T10:28:21;99423.18;;;13.14;73.47
51147;BME280;37207;53.060;18.726;2023-03-25T10:30:52;99418.27;;;13.17;73.30
51147;BME280;37207;53.060;18.726;2023-03-25T10:33:36;99411.11;;;13.05;72.67
51147;BME280;37207;53.060;18.726;2023-03-25T10:36:06;99407.17;;;12.82;72.71
51147;BME280;37207;53.060;18.726;2023-03-25T10:38:35;99410.73;;;12.63;73.07
51147;BME280;37207;53.060;18.726;2023-03-25T10:41:24;99416.31;;;12.44;73.36
51147;BME280;37207;53.060;18.726;2023-03-25T10:43:52;99415.56;;;12.27;73.39
51147;BME280;37207;53.060;18.726;2023-03-25T10:46:34;99414.10;;;12.20;73.83
51147;BME280;37207;53.060;18.726;2023-03-25T10:49:04;99408.44;;;12.17;74.05
51147;BME280;37207;53.060;18.726;2023-03-25T10:51:32;99402.73;;;12.20;74.00
51147;BME280;37207;53.060;18.726;2023-03-25T10:54:00;99402.60;;;12.21;73.78
51147;BME280;37207;53.060;18.726;2023-03-25T10:56:54;99402.09;;;12.17;73.77
51147;BME280;37207;53.060;18.726;2023-03-25T10:59:43;99397.08;;;12.10;73.91
51147;BME280;37207;53.060;18.726;2023-03-25T11:02:19;99393.80;;;11.99;73.80
51147;BME280;37207;53.060;18.726;2023-03-25T11:04:50;99391.60;;;11.88;74.29
51147;BME280;37207;53.060;18.726;2023-03-25T11:07:34;99395.53;;;11.82;74.71
51147;BME280;37207;53.060;18.726;2023-03-25T11:12:41;99395.44;;;11.82;75.00
51147;BME280;37207;53.060;18.726;2023-03-25T11:15:13;99393.48;;;11.82;75.32
51147;BME280;37207;53.060;18.726;2023-03-25T11:17:41;99394.14;;;11.82;75.52
51147;BME280;37207;53.060;18.726;2023-03-25T11:20:17;99396.90;;;11.78;75.71
51147;BME280;37207;53.060;18.726;2023-03-25T11:22:47;99394.73;;;11.74;75.89
51147;BME280;37207;53.060;18.726;2023-03-25T11:25:18;99396.62;;;11.71;76.07
51147;BME280;37207;53.060;18.726;2023-03-25T11:28:05;99391.56;;;11.69;76.06
51147;BME280;37207;53.060;18.726;2023-03-25T11:30:34;99387.54;;;11.78;76.26
51147;BME280;37207;53.060;18.726;2023-03-25T11:33:05;99388.38;;;11.91;76.04
51147;BME280;37207;53.060;18.726;2023-03-25T11:35:37;99387.61;;;12.03;75.72
51147;BME280;37207;53.060;18.726;2023-03-25T11:38:15;99384.68;;;12.14;75.33
51147;BME280;37207;53.060;18.726;2023-03-25T11:40:52;99374.43;;;12.27;74.82
51147;BME280;37207;53.060;18.726;2023-03-25T11:43:21;99365.31;;;12.46;74.68
51147;BME280;37207;53.060;18.726;2023-03-25T11:45:48;99362.92;;;12.57;74.23
51147;BME280;37207;53.060;18.726;2023-03-25T11:48:36;99365.79;;;12.57;74.12
51147;BME280;37207;53.060;18.726;2023-03-25T11:51:07;99368.04;;;12.52;73.95
51147;BME280;37207;53.060;18.726;2023-03-25T11:53:36;99365.87;;;12.43;73.21
51147;BME280;37207;53.060;18.726;2023-03-25T11:56:05;99365.79;;;12.35;73.13
51147;BME280;37207;53.060;18.726;2023-03-25T11:58:34;99361.21;;;12.29;72.89
51147;BME280;37207;53.060;18.726;2023-03-25T12:01:03;99356.73;;;12.50;73.17
51147;BME280;37207;53.060;18.726;2023-03-25T12:03:31;99350.80;;;12.81;72.95
51147;BME280;37207;53.060;18.726;2023-03-25T12:06:13;99350.66;;;12.86;71.87
51147;BME280;37207;53.060;18.726;2023-03-25T12:11:19;99337.05;;;12.79;72.20
51147;BME280;37207;53.060;18.726;2023-03-25T12:14:01;99334.19;;;12.81;72.19
51147;BME280;37207;53.060;18.726;2023-03-25T12:21:42;99327.84;;;15.78;68.90
51147;BME280;37207;53.060;18.726;2023-03-25T12:24:47;99326.00;;;16.70;65.93
51147;BME280;37207;53.060;18.726;2023-03-25T12:27:38;99327.72;;;16.72;64.91
51147;BME280;37207;53.060;18.726;2023-03-25T12:30:35;99318.95;;;16.84;65.25
51147;BME280;37207;53.060;18.726;2023-03-25T12:36:19;99310.20;;;18.79;60.94
51147;BME280;37207;53.060;18.726;2023-03-25T13:09:47;99287.35;;;20.72;49.12
51147;BME280;37207;53.060;18.726;2023-03-25T13:12:37;99281.28;;;20.40;49.18
51147;BME280;37207;53.060;18.726;2023-03-25T13:18:06;99273.46;;;19.27;50.02
51147;BME280;37207;53.060;18.726;2023-03-25T13:20:28;99274.55;;;18.25;50.99
51147;BME280;37207;53.060;18.726;2023-03-25T13:22:58;99274.69;;;17.47;52.33
51147;BME280;37207;53.060;18.726;2023-03-25T13:25:44;99273.30;;;16.79;53.29
51147;BME280;37207;53.060;18.726;2023-03-25T13:28:15;99285.45;;;16.05;54.31
51147;BME280;37207;53.060;18.726;2023-03-25T13:30:45;99307.89;;;15.40;56.66
51147;BME280;37207;53.060;18.726;2023-03-25T13:33:27;99325.48;;;14.50;58.86
51147;BME280;37207;53.060;18.726;2023-03-25T13:36:00;99345.91;;;13.31;61.29
51147;BME280;37207;53.060;18.726;2023-03-25T13:38:42;99337.93;;;12.35;63.25
51147;BME280;37207;53.060;18.726;2023-03-25T13:41:17;99328.04;;;11.66;64.58
51147;BME280;37207;53.060;18.726;2023-03-25T13:43:53;99321.32;;;11.20;65.97
51147;BME280;37207;53.060;18.726;2023-03-25T13:46:35;99315.20;;;10.83;66.90
51147;BME280;37207;53.060;18.726;2023-03-25T13:49:14;99310.25;;;10.55;67.70
51147;BME280;37207;53.060;18.726;2023-03-25T13:51:43;99306.40;;;10.31;68.97
51147;BME280;37207;53.060;18.726;2023-03-25T13:56:56;99293.45;;;10.02;70.42
51147;BME280;37207;53.060;18.726;2023-03-25T14:02:20;99274.08;;;9.85;71.89
51147;BME280;37207;53.060;18.726;2023-03-25T14:07:52;99270.71;;;9.98;73.17
51147;BME280;37207;53.060;18.726;2023-03-25T14:10:28;99287.17;;;10.36;74.46
51147;BME280;37207;53.060;18.726;2023-03-25T14:13:03;99295.63;;;10.72;74.71
51147;BME280;37207;53.060;18.726;2023-03-25T14:15:34;99286.52;;;10.91;74.51
51147;BME280;37207;53.060;18.726;2023-03-25T14:18:02;99286.35;;;11.03;74.21
51147;BME280;37207;53.060;18.726;2023-03-25T14:20:33;99284.52;;;11.12;74.18
51147;BME280;37207;53.060;18.726;2023-03-25T14:23:06;99280.28;;;11.19;74.26
51147;BME280;37207;53.060;18.726;2023-03-25T14:25:44;99284.52;;;11.28;74.56
51147;BME280;37207;53.060;18.726;2023-03-25T14:28:17;99285.08;;;11.33;74.60
51147;BME280;37207;53.060;18.726;2023-03-25T14:39:09;99297.59;;;11.38;74.82
51147;BME280;37207;53.060;18.726;2023-03-25T14:42:01;99303.03;;;11.36;75.01
51147;BME280;37207;53.060;18.726;2023-03-25T14:44:32;99305.06;;;11.33;74.83
51147;BME280;37207;53.060;18.726;2023-03-25T14:47:25;99309.45;;;11.28;74.80
51147;BME280;37207;53.060;18.726;2023-03-25T14:52:47;99317.08;;;11.17;74.73
51147;BME280;37207;53.060;18.726;2023-03-25T14:55:19;99317.04;;;11.08;74.58
51147;BME280;37207;53.060;18.726;2023-03-25T14:57:46;99317.34;;;10.99;74.75
51147;BME280;37207;53.060;18.726;2023-03-25T15:00:25;99319.46;;;10.92;75.01
51147;BME280;37207;53.060;18.726;2023-03-25T15:03:03;99317.60;;;10.90;75.36
51147;BME280;37207;53.060;18.726;2023-03-25T15:05:34;99319.15;;;10.90;75.54
51147;BME280;37207;53.060;18.726;2023-03-25T15:10:34;99310.59;;;10.95;76.18
51147;BME280;37207;53.060;18.726;2023-03-25T15:13:27;99310.30;;;10.99;76.17
51147;BME280;37207;53.060;18.726;2023-03-25T15:16:00;99304.60;;;11.01;76.21